Caseyville, IL (62232)

02:22 CST le 07 février 2016 (GMT -0600)
Dave's Yard | | Change Station
CLOSE
Current Station
Stations météorologiques personnelles
Location: Caseyville, IL
Altitude: 577 ft
Stations météo à proximité

Alt. 577 ft 38.64 °N, 90.01 °W | Updated 34 seconds ago

Ciel dégagé
Ciel dégagé
43.0 ° F
Paraît 40 ° F
N
5.1
Vent Variable Vent de SSO
Gusts 7.4 mph

Aujourd'hui
Haut(e) -- | Bas -- ° F
--% Risque de précip.
Hier
Haut(e) -- | Bas -- ° F
Precip. -- pouce
Pression 30.17 pouce
Visibilité 10.0 Miles terrestres
Nuages Ciel dégagé
Refroidissement éolien 40 ° F
Point de rosée 15 ° F
Humidité 32%
Précipitations 0.00 pouce
Profondeur de la couche neigeuse Non disponible.
7:00 AM 5:28 PM
Lune descendante, 2% visible
METAR KCPS 070753Z AUTO 21006KT 10SM CLR 06/M08 A3016 RMK AO2 SLP215 T00611078
Pression 30.17 pouce
Visibilité 10.0 Miles terrestres
Nuages Ciel dégagé
Refroidissement éolien 40 ° F
Point de rosée 15 ° F
Humidité 32%
Précipitations 0.00 pouce
Profondeur de la couche neigeuse Non disponible.
7:00 AM 5:28 PM
Lune descendante, 2% visible
METAR KCPS 070753Z AUTO 21006KT 10SM CLR 06/M08 A3016 RMK AO2 SLP215 T00611078

10-Day Weather Forecast

Almanac

Astronomie

Feb. 07, 2016 Lever Coucher
Temps réel
Crépuscule civil
Crépuscule nautique
Crépuscule astronomique
Lune
Durée de lumière visible
Longueur du jour
Tomorrow will be .
, % of the Moon is Illuminated

Extrêmes aujourd'hui

State Highs State Lows

Community

WunderPhotos

Upload Photos

1,891,171 Photos téléchargées !

WunderBlog® & News

Nearby

Qualité de l'air

  Qualité de l'air Indice de la qualité de l'air Polluant
Not available.

Épaisseur de neige

Station Depth Altitude

Activité sismique

Ville Distance Mag. Time & Date
Minimum magnitude displayed is 2.5.

Températures des eaux côtières

Lieu Température

Stations

Stations météo à proximité

Emplacement de la station Température Refroidissement éolien Point de rosée Humidité Vent Precip. Alt. Mise à jour Type
                   

Watches & Warnings

There are currently no watches in effect.